Wetterdaten: Woche 26.06.17 - 02.07.17 (KW26)
Datum Zeit Temp. Aussen Temp. o. S. +5cm Feuchte Auss BlattFeu 1 Luftdruck Regen Sonnenschein Regendauer Solar Windben Empfang
26.06.2017 00:00 17,6 C 16,8 C 15,3 C 80 % 0 lf 1011,2 hPa 0,0 l/m 0,00 h 0,00 h 5 W/m 12,8 km/h (3 Bft) 95,99 %
26.06.2017 01:00 16,9 C 16,6 C 15,0 C 84 % 0 lf 1011,1 hPa 0,0 l/m 0,00 h 0,00 h 0 W/m 16,0 km/h (3 Bft) 96,77 %
26.06.2017 02:00 16,6 C 16,3 C 14,9 C 86 % 0 lf 1011,2 hPa 0,0 l/m 0,00 h 0,00 h 0 W/m 12,8 km/h (3 Bft) 97,49 %
26.06.2017 03:00 16,8 C 16,9 C 15,8 C 86 % 0 lf 1011,2 hPa 0,0 l/m 0,00 h 0,00 h 0 W/m 16,0 km/h (3 Bft) 94,54 %
26.06.2017 04:00 17,1 C 17,1 C 16,1 C 84 % 0 lf 1011,2 hPa 0,0 l/m 0,00 h 0,00 h 0 W/m 17,2 km/h (3 Bft) 96,73 %
26.06.2017 05:00 17,0 C 16,7 C 15,7 C 85 % 0 lf 1011,1 hPa 0,0 l/m 0,00 h 0,00 h 18 W/m 15,3 km/h (3 Bft) 98,03 %
26.06.2017 06:00 16,7 C 16,9 C 15,8 C 86 % 0 lf 1011,2 hPa 0,0 l/m 0,03 h 0,00 h 36 W/m 14,1 km/h (3 Bft) 93,05 %
26.06.2017 07:00 17,2 C 18,1 C 17,2 C 87 % 0 lf 1011,6 hPa 0,0 l/m 0,00 h 0,00 h 39 W/m 17,0 km/h (3 Bft) 97,14 %
26.06.2017 08:00 17,7 C 18,0 C 17,2 C 86 % 4 lf 1012,1 hPa 0,0 l/m 0,00 h 0,27 h 37 W/m 16,7 km/h (3 Bft) 98,94 %
26.06.2017 09:00 18,1 C 22,2 C 18,9 C 87 % 3 lf 1012,4 hPa 0,0 l/m 0,00 h 0,03 h 48 W/m 14,2 km/h (3 Bft) 93,96 %
26.06.2017 10:00 20,0 C 27,5 C 24,5 C 76 % 0 lf 1012,6 hPa 0,0 l/m 0,23 h 0,00 h 218 W/m 15,1 km/h (3 Bft) 97,15 %
26.06.2017 11:00 22,6 C 30,0 C 28,2 C 63 % 0 lf 1012,6 hPa 0,0 l/m 0,90 h 0,00 h 720 W/m 17,8 km/h (3 Bft) 97,81 %
26.06.2017 12:00 23,4 C 30,8 C 28,7 C 58 % 0 lf 1012,7 hPa 0,0 l/m 0,93 h 0,00 h 864 W/m 19,2 km/h (3 Bft) 95,83 %
26.06.2017 13:00 24,3 C 30,5 C 27,7 C 54 % 0 lf 1012,7 hPa 0,0 l/m 0,83 h 0,00 h 795 W/m 17,7 km/h (3 Bft) 96,65 %
26.06.2017 14:00 24,3 C 28,8 C 29,5 C 51 % 0 lf 1012,7 hPa 0,0 l/m 0,70 h 0,00 h 696 W/m 18,5 km/h (3 Bft) 95,87 %
26.06.2017 15:00 23,8 C 27,8 C 30,3 C 51 % 0 lf 1012,5 hPa 0,0 l/m 0,70 h 0,00 h 632 W/m 15,7 km/h (3 Bft) 98,36 %
26.06.2017 16:00 24,6 C 26,5 C 33,9 C 49 % 0 lf 1012,2 hPa 0,0 l/m 0,97 h 0,00 h 734 W/m 15,3 km/h (3 Bft) 93,82 %
26.06.2017 17:00 24,9 C 25,6 C 26,6 C 46 % 0 lf 1011,8 hPa 0,0 l/m 1,00 h 0,00 h 567 W/m 14,4 km/h (3 Bft) 97,86 %
26.06.2017 18:00 23,9 C 24,2 C 22,5 C 47 % 0 lf 1011,5 hPa 0,0 l/m 1,00 h 0,00 h 405 W/m 14,3 km/h (3 Bft) 97,60 %
26.06.2017 19:00 22,9 C 22,9 C 21,3 C 50 % 0 lf 1011,4 hPa 0,0 l/m 1,00 h 0,00 h 255 W/m 15,2 km/h (3 Bft) 93,93 %
26.06.2017 20:00 22,1 C 21,9 C 20,4 C 52 % 0 lf 1011,1 hPa 0,0 l/m 1,00 h 0,00 h 107 W/m 13,7 km/h (3 Bft) 97,15 %
26.06.2017 21:00 21,1 C 20,2 C 18,9 C 55 % 0 lf 1011,0 hPa 0,0 l/m 0,57 h 0,00 h 25 W/m 10,0 km/h (2 Bft) 99,43 %
26.06.2017 22:00 19,6 C 17,9 C 16,6 C 59 % 0 lf 1011,5 hPa 0,0 l/m 0,00 h 0,00 h 4 W/m 6,6 km/h (2 Bft) 93,81 %
26.06.2017 23:00 18,1 C 16,7 C 15,4 C 64 % 0 lf 1011,8 hPa 0,0 l/m 0,00 h 0,00 h 4 W/m 8,2 km/h (2 Bft) 97,58 %
27.06.2017 00:00 16,7 C 15,7 C 14,6 C 70 % 0 lf 1011,6 hPa 0,0 l/m 0,00 h 0,00 h 0 W/m 8,1 km/h (2 Bft) 97,69 %
27.06.2017 01:00 15,9 C 15,2 C 14,0 C 72 % 0 lf 1011,5 hPa 0,0 l/m 0,00 h 0,00 h 0 W/m 7,8 km/h (2 Bft) 96,00 %
27.06.2017 02:00 15,3 C 14,3 C 13,4 C 75 % 0 lf 1011,3 hPa 0,0 l/m 0,00 h 0,00 h 0 W/m 7,1 km/h (2 Bft) 95,88 %
27.06.2017 03:00 14,8 C 14,0 C 12,8 C 78 % 0 lf 1011,2 hPa 0,0 l/m 0,00 h 0,00 h 2 W/m 7,6 km/h (2 Bft) 97,66 %
27.06.2017 04:00 14,7 C 14,2 C 13,0 C 78 % 0 lf 1010,7 hPa 0,0 l/m 0,00 h 0,00 h 5 W/m 9,6 km/h (2 Bft) 94,95 %
27.06.2017 05:00 14,6 C 14,4 C 13,3 C 78 % 0 lf 1010,4 hPa 0,0 l/m 0,00 h 0,00 h 11 W/m 10,0 km/h (2 Bft) 99,20 %
27.06.2017 06:00 14,7 C 14,9 C 13,9 C 78 % 0 lf 1010,1 hPa 0,0 l/m 0,00 h 0,00 h 34 W/m 11,1 km/h (2 Bft) 94,53 %
27.06.2017 07:00 15,2 C 16,1 C 15,1 C 79 % 0 lf 1009,6 hPa 0,0 l/m 0,00 h 0,00 h 77 W/m 10,8 km/h (2 Bft) 96,13 %
27.06.2017 08:00 16,0 C 17,3 C 16,4 C 77 % 0 lf 1009,4 hPa 0,0 l/m 0,00 h 0,00 h 135 W/m 13,0 km/h (3 Bft) 97,82 %
27.06.2017 09:00 17,0 C 18,9 C 18,3 C 75 % 0 lf 1009,3 hPa 0,0 l/m 0,00 h 0,00 h 189 W/m 11,0 km/h (2 Bft) 96,80 %
27.06.2017 10:00 18,3 C 19,3 C 19,1 C 73 % 1 lf 1009,0 hPa 0,0 l/m 0,00 h 0,23 h 186 W/m 12,0 km/h (2 Bft) 94,52 %
27.06.2017 11:00 19,0 C 21,8 C 20,6 C 73 % 0 lf 1008,6 hPa 0,0 l/m 0,00 h 0,10 h 325 W/m 12,4 km/h (3 Bft) 98,56 %
27.06.2017 12:00 21,1 C 24,0 C 24,0 C 68 % 0 lf 1008,2 hPa 0,0 l/m 0,23 h 0,17 h 441 W/m 12,5 km/h (3 Bft) 96,33 %
27.06.2017 13:00 22,3 C 24,5 C 24,5 C 67 % 1 lf 1007,5 hPa 0,0 l/m 0,00 h 0,17 h 345 W/m 12,4 km/h (3 Bft) 95,77 %
27.06.2017 14:00 22,7 C 23,0 C 23,1 C 67 % 4 lf 1007,1 hPa 0,0 l/m 0,00 h 0,33 h 233 W/m 14,0 km/h (3 Bft) 96,49 %
27.06.2017 15:00 21,5 C 18,4 C 17,8 C 80 % 15 lf 1006,7 hPa 1,0 l/m 0,00 h 1,00 h 141 W/m 9,6 km/h (2 Bft) 98,89 %
27.06.2017 16:00 20,1 C 19,1 C 17,5 C 87 % 3 lf 1006,0 hPa 0,0 l/m 0,00 h 0,20 h 130 W/m 7,9 km/h (2 Bft) 95,14 %
27.06.2017 17:00 20,0 C 21,0 C 17,7 C 86 % 0 lf 1005,0 hPa 0,0 l/m 0,00 h 0,07 h 149 W/m 14,7 km/h (3 Bft) 96,04 %
27.06.2017 18:00 20,6 C 22,0 C 20,5 C 82 % 0 lf 1004,0 hPa 0,0 l/m 0,10 h 0,00 h 155 W/m 16,7 km/h (3 Bft) 98,04 %
27.06.2017 19:00 21,0 C 21,3 C 20,2 C 79 % 0 lf 1003,2 hPa 0,0 l/m 0,00 h 0,00 h 70 W/m 16,4 km/h (3 Bft) 97,46 %
27.06.2017 20:00 20,6 C 20,4 C 19,1 C 81 % 0 lf 1002,5 hPa 0,0 l/m 0,00 h 0,17 h 38 W/m 17,5 km/h (3 Bft) 93,74 %
27.06.2017 21:00 20,1 C 19,7 C 18,4 C 83 % 0 lf 1002,3 hPa 0,0 l/m 0,10 h 0,00 h 19 W/m 14,2 km/h (3 Bft) 98,83 %
27.06.2017 22:00 19,7 C 19,3 C 17,8 C 86 % 0 lf 1001,7 hPa 0,0 l/m 0,00 h 0,00 h 0 W/m 12,6 km/h (3 Bft) 96,22 %
27.06.2017 23:00 19,4 C 19,0 C 17,6 C 88 % 0 lf 1001,2 hPa 0,0 l/m 0,00 h 0,00 h 0 W/m 7,8 km/h (2 Bft) 95,68 %
28.06.2017 00:00 19,2 C 18,9 C 17,5 C 89 % 1 lf 1000,7 hPa 0,0 l/m 0,00 h 0,00 h 0 W/m 9,5 km/h (2 Bft) 97,13 %
28.06.2017 01:00 19,1 C 18,9 C 17,6 C 90 % 1 lf 999,8 hPa 0,0 l/m 0,00 h 0,00 h 0 W/m 12,5 km/h (3 Bft) 96,65 %
28.06.2017 02:00 19,0 C 18,6 C 17,2 C 92 % 1 lf 998,6 hPa 0,0 l/m 0,00 h 0,00 h 0 W/m 9,9 km/h (2 Bft) 96,24 %
28.06.2017 03:00 19,0 C 19,1 C 17,6 C 93 % 1 lf 997,8 hPa 0,0 l/m 0,00 h 0,00 h 5 W/m 12,6 km/h (3 Bft) 97,08 %
28.06.2017 04:00 19,3 C 19,2 C 17,7 C 91 % 1 lf 997,3 hPa 0,0 l/m 0,00 h 0,00 h 4 W/m 14,3 km/h (3 Bft) 95,37 %
28.06.2017 05:00 19,3 C 19,2 C 17,8 C 91 % 1 lf 996,7 hPa 0,0 l/m 0,00 h 0,07 h 6 W/m 14,8 km/h (3 Bft) 97,72 %
28.06.2017 06:00 19,4 C 18,5 C 17,3 C 92 % 2 lf 996,9 hPa 0,2 l/m 0,00 h 0,70 h 22 W/m 15,7 km/h (3 Bft) 96,16 %
28.06.2017 07:00 18,9 C 17,6 C 16,9 C 93 % 6 lf 996,8 hPa 0,6 l/m 0,00 h 0,60 h 48 W/m 11,9 km/h (2 Bft) 95,84 %
28.06.2017 08:00 18,5 C 18,0 C 17,2 C 95 % 13 lf 996,6 hPa 0,4 l/m 0,10 h 0,47 h 133 W/m 14,2 km/h (3 Bft) 96,44 %
28.06.2017 09:00 19,6 C 20,3 C 19,1 C 96 % 0 lf 996,3 hPa 0,0 l/m 0,40 h 0,00 h 242 W/m 16,7 km/h (3 Bft) 98,29 %
28.06.2017 10:00 19,7 C 19,6 C 18,9 C 93 % 0 lf 996,2 hPa 0,0 l/m 0,00 h 0,00 h 170 W/m 17,6 km/h (3 Bft) 93,94 %
28.06.2017 11:00 20,1 C 21,5 C 21,1 C 92 % 0 lf 995,9 hPa 0,0 l/m 0,00 h 0,00 h 249 W/m 18,7 km/h (3 Bft) 97,86 %
28.06.2017 12:00 21,5 C 23,9 C 24,6 C 88 % 0 lf 995,4 hPa 0,0 l/m 0,73 h 0,00 h 435 W/m 21,2 km/h (4 Bft) 96,23 %
28.06.2017 13:00 21,7 C 21,8 C 21,0 C 84 % 2 lf 995,2 hPa 0,0 l/m 0,00 h 0,40 h 143 W/m 20,4 km/h (4 Bft) 97,30 %
28.06.2017 14:00 21,3 C 22,0 C 21,4 C 85 % 7 lf 995,2 hPa 0,2 l/m 0,30 h 0,47 h 230 W/m 21,8 km/h (4 Bft) 95,03 %
28.06.2017 15:00 19,5 C 18,7 C 17,8 C 92 % 15 lf 995,5 hPa 0,2 l/m 0,00 h 0,80 h 135 W/m 19,8 km/h (3 Bft) 97,15 %
28.06.2017 16:00 20,0 C 22,3 C 20,5 C 92 % 5 lf 995,3 hPa 0,0 l/m 0,63 h 0,20 h 405 W/m 19,2 km/h (3 Bft) 97,01 %
28.06.2017 17:00 21,9 C 23,3 C 23,6 C 80 % 0 lf 995,0 hPa 0,0 l/m 0,93 h 0,00 h 573 W/m 24,6 km/h (4 Bft) 94,88 %
28.06.2017 18:00 21,7 C 22,5 C 22,0 C 79 % 0 lf 994,8 hPa 0,0 l/m 0,37 h 0,00 h 236 W/m 15,9 km/h (3 Bft) 97,34 %
28.06.2017 19:00 21,7 C 22,1 C 20,6 C 74 % 0 lf 994,8 hPa 0,0 l/m 0,97 h 0,00 h 274 W/m 13,9 km/h (3 Bft) 98,71 %
28.06.2017 20:00 21,5 C 21,2 C 19,3 C 75 % 0 lf 994,6 hPa 0,0 l/m 0,87 h 0,00 h 104 W/m 8,5 km/h (2 Bft) 93,43 %
28.06.2017 21:00 20,9 C 19,2 C 16,9 C 77 % 0 lf 994,3 hPa 0,0 l/m 0,00 h 0,00 h 18 W/m 0,8 km/h (0 Bft) 98,35 %
28.06.2017 22:00 19,4 C 17,5 C 15,2 C 82 % 1 lf 994,4 hPa 0,0 l/m 0,00 h 0,00 h 4 W/m 0,6 km/h (0 Bft) 98,12 %
28.06.2017 23:00 18,1 C 17,2 C 15,3 C 87 % 1 lf 994,4 hPa 0,0 l/m 0,00 h 0,00 h 3 W/m 3,3 km/h (1 Bft) 94,65 %
29.06.2017 00:00 17,4 C 16,7 C 14,6 C 89 % 1 lf 994,0 hPa 0,0 l/m 0,00 h 0,00 h 4 W/m 3,1 km/h (1 Bft) 96,17 %
29.06.2017 01:00 16,8 C 15,7 C 13,7 C 90 % 3 lf 993,8 hPa 0,0 l/m 0,00 h 0,00 h 5 W/m 0,0 km/h (0 Bft) 98,92 %
29.06.2017 02:00 16,1 C 14,9 C 13,4 C 91 % 7 lf 993,9 hPa 0,0 l/m 0,00 h 0,00 h 5 W/m 0,0 km/h (0 Bft) 94,18 %
29.06.2017 03:00 15,8 C 15,7 C 14,2 C 94 % 4 lf 994,0 hPa 0,0 l/m 0,00 h 0,00 h 5 W/m 1,7 km/h (1 Bft) 97,92 %
29.06.2017 04:00 16,0 C 16,3 C 14,8 C 95 % 2 lf 994,0 hPa 0,2 l/m 0,00 h 0,00 h 5 W/m 0,8 km/h (0 Bft) 96,23 %
29.06.2017 05:00 16,5 C 16,7 C 15,2 C 94 % 1 lf 994,2 hPa 0,0 l/m 0,00 h 0,07 h 11 W/m 5,2 km/h (1 Bft) 96,03 %
29.06.2017 06:00 16,8 C 17,2 C 15,9 C 94 % 1 lf 994,1 hPa 0,0 l/m 0,00 h 0,00 h 34 W/m 6,5 km/h (2 Bft) 97,78 %
29.06.2017 07:00 17,3 C 18,3 C 17,0 C 91 % 1 lf 994,4 hPa 0,0 l/m 0,47 h 0,00 h 126 W/m 16,6 km/h (3 Bft) 95,66 %
29.06.2017 08:00 17,9 C 19,0 C 18,1 C 86 % 0 lf 994,6 hPa 0,0 l/m 0,27 h 0,00 h 179 W/m 24,2 km/h (4 Bft) 95,20 %
29.06.2017 09:00 18,0 C 18,9 C 18,2 C 84 % 0 lf 995,1 hPa 0,0 l/m 0,00 h 0,00 h 157 W/m 26,5 km/h (4 Bft) 99,62 %
29.06.2017 10:00 18,3 C 19,8 C 19,2 C 82 % 0 lf 995,6 hPa 0,0 l/m 0,00 h 0,00 h 211 W/m 21,8 km/h (4 Bft) 95,70 %
29.06.2017 11:00 19,1 C 20,8 C 20,6 C 78 % 0 lf 996,0 hPa 0,0 l/m 0,17 h 0,00 h 271 W/m 21,5 km/h (4 Bft) 95,35 %
29.06.2017 12:00 19,7 C 22,5 C 22,1 C 77 % 0 lf 996,3 hPa 0,0 l/m 0,53 h 0,00 h 377 W/m 20,3 km/h (4 Bft) 97,61 %
29.06.2017 13:00 21,5 C 25,1 C 24,9 C 69 % 0 lf 996,5 hPa 0,0 l/m 0,97 h 0,00 h 529 W/m 20,2 km/h (4 Bft) 96,81 %
29.06.2017 14:00 23,3 C 28,3 C 29,3 C 62 % 0 lf 996,7 hPa 0,0 l/m 1,00 h 0,00 h 793 W/m 22,6 km/h (4 Bft) 95,21 %
29.06.2017 15:00 24,0 C 27,3 C 29,3 C 60 % 0 lf 996,8 hPa 0,0 l/m 0,97 h 0,00 h 603 W/m 21,2 km/h (4 Bft) 97,06 %
29.06.2017 16:00 24,1 C 26,4 C 27,7 C 59 % 0 lf 997,0 hPa 0,0 l/m 0,97 h 0,00 h 443 W/m 17,3 km/h (3 Bft) 98,01 %
29.06.2017 17:00 23,7 C 25,3 C 25,4 C 60 % 0 lf 997,1 hPa 0,0 l/m 0,63 h 0,00 h 301 W/m 14,0 km/h (3 Bft) 95,52 %
29.06.2017 18:00 23,2 C 24,2 C 24,0 C 61 % 0 lf 997,2 hPa 0,0 l/m 0,57 h 0,00 h 247 W/m 14,7 km/h (3 Bft) 95,63 %
29.06.2017 19:00 22,6 C 23,0 C 22,3 C 61 % 0 lf 997,6 hPa 0,0 l/m 0,47 h 0,00 h 149 W/m 12,9 km/h (3 Bft) 98,51 %
29.06.2017 20:00 21,7 C 21,4 C 20,4 C 61 % 0 lf 998,0 hPa 0,0 l/m 0,00 h 0,00 h 69 W/m 10,8 km/h (2 Bft) 96,07 %
29.06.2017 21:00 20,5 C 19,3 C 18,0 C 65 % 0 lf 998,7 hPa 0,0 l/m 0,00 h 0,00 h 15 W/m 5,0 km/h (1 Bft) 95,28 %
29.06.2017 22:00 19,2 C 17,4 C 16,0 C 69 % 0 lf 999,3 hPa 0,0 l/m 0,00 h 0,00 h 2 W/m 2,7 km/h (1 Bft) 98,86 %
29.06.2017 23:00 17,9 C 16,1 C 14,5 C 74 % 0 lf 999,7 hPa 0,0 l/m 0,00 h 0,00 h 5 W/m 0,0 km/h (0 Bft) 96,90 %
30.06.2017 00:00 16,5 C 14,6 C 13,1 C 79 % 0 lf 999,9 hPa 0,0 l/m 0,00 h 0,00 h 3 W/m 0,0 km/h (0 Bft) 93,89 %
30.06.2017 01:00 15,4 C 14,4 C 12,8 C 84 % 1 lf 1000,1 hPa 0,0 l/m 0,00 h 0,00 h 0 W/m 0,0 km/h (0 Bft) 98,37 %
30.06.2017 02:00 15,0 C 15,1 C 13,7 C 87 % 0 lf 1000,3 hPa 0,0 l/m 0,00 h 0,00 h 0 W/m 0,0 km/h (0 Bft) 95,73 %
30.06.2017 03:00 15,4 C 16,0 C 14,8 C 85 % 0 lf 1000,2 hPa 0,0 l/m 0,00 h 0,00 h 0 W/m 0,5 km/h (0 Bft) 96,92 %
30.06.2017 04:00 16,4 C 16,5 C 15,0 C 80 % 0 lf 1000,4 hPa 0,0 l/m 0,00 h 0,00 h 0 W/m 15,6 km/h (3 Bft) 96,53 %
30.06.2017 05:00 16,4 C 16,1 C 14,8 C 80 % 0 lf 1000,9 hPa 0,0 l/m 0,00 h 0,00 h 10 W/m 21,5 km/h (4 Bft) 96,21 %
30.06.2017 06:00 15,8 C 15,7 C 14,6 C 83 % 0 lf 1001,3 hPa 0,0 l/m 0,00 h 0,00 h 44 W/m 19,8 km/h (3 Bft) 96,81 %
30.06.2017 07:00 15,7 C 16,5 C 15,3 C 84 % 0 lf 1001,8 hPa 0,0 l/m 0,00 h 0,00 h 119 W/m 17,6 km/h (3 Bft) 97,66 %
30.06.2017 08:00 16,5 C 18,1 C 17,3 C 83 % 0 lf 1002,3 hPa 0,0 l/m 0,17 h 0,00 h 191 W/m 17,0 km/h (3 Bft) 93,90 %
30.06.2017 09:00 17,8 C 20,7 C 19,8 C 78 % 0 lf 1002,5 hPa 0,0 l/m 0,60 h 0,00 h 304 W/m 19,0 km/h (3 Bft) 98,01 %
30.06.2017 10:00 19,5 C 22,9 C 22,4 C 71 % 0 lf 1002,5 hPa 0,0 l/m 0,60 h 0,00 h 423 W/m 22,7 km/h (4 Bft) 97,44 %
30.06.2017 11:00 21,0 C 26,0 C 25,8 C 66 % 0 lf 1002,7 hPa 0,0 l/m 0,80 h 0,00 h 673 W/m 27,0 km/h (4 Bft) 95,23 %
30.06.2017 12:00 20,6 C 22,6 C 22,5 C 65 % 0 lf 1002,9 hPa 0,0 l/m 0,13 h 0,00 h 324 W/m 21,8 km/h (4 Bft) 97,05 %
30.06.2017 13:00 21,0 C 23,3 C 22,9 C 64 % 0 lf 1003,0 hPa 0,0 l/m 0,23 h 0,00 h 369 W/m 27,4 km/h (4 Bft) 96,48 %
30.06.2017 14:00 21,3 C 23,9 C 24,7 C 65 % 0 lf 1003,1 hPa 0,0 l/m 0,63 h 0,00 h 437 W/m 21,7 km/h (4 Bft) 96,86 %
30.06.2017 15:00 21,9 C 24,4 C 25,4 C 61 % 0 lf 1003,1 hPa 0,0 l/m 0,53 h 0,00 h 429 W/m 20,5 km/h (4 Bft) 95,02 %
30.06.2017 16:00 23,4 C 25,8 C 28,9 C 56 % 0 lf 1003,2 hPa 0,0 l/m 0,90 h 0,00 h 547 W/m 21,2 km/h (4 Bft) 97,79 %
30.06.2017 17:00 23,7 C 25,2 C 25,9 C 54 % 0 lf 1003,1 hPa 0,0 l/m 0,93 h 0,00 h 438 W/m 19,2 km/h (3 Bft) 96,24 %
30.06.2017 18:00 23,0 C 23,4 C 23,3 C 55 % 0 lf 1003,2 hPa 0,0 l/m 0,23 h 0,00 h 212 W/m 17,7 km/h (3 Bft) 95,90 %
30.06.2017 19:00 21,9 C 22,1 C 21,6 C 60 % 0 lf 1003,4 hPa 0,0 l/m 0,43 h 0,00 h 154 W/m 20,6 km/h (4 Bft) 97,09 %
30.06.2017 20:00 20,9 C 20,6 C 19,9 C 64 % 0 lf 1003,8 hPa 0,0 l/m 0,00 h 0,00 h 56 W/m 14,7 km/h (3 Bft) 98,19 %
30.06.2017 21:00 19,7 C 18,9 C 18,0 C 73 % 0 lf 1004,4 hPa 0,0 l/m 0,00 h 0,00 h 9 W/m 9,7 km/h (2 Bft) 94,06 %
30.06.2017 22:00 18,3 C 16,2 C 15,5 C 83 % 12 lf 1004,9 hPa 2,4 l/m 0,00 h 0,83 h 0 W/m 8,5 km/h (2 Bft) 98,46 %
30.06.2017 23:00 16,8 C 15,4 C 14,9 C 91 % 15 lf 1004,9 hPa 0,0 l/m 0,00 h 0,27 h 3 W/m 6,6 km/h (2 Bft) 96,99 %
01.07.2017 00:00 16,1 C 15,0 C 14,4 C 93 % 15 lf 1004,9 hPa 0,0 l/m 0,00 h 0,00 h 0 W/m 4,3 km/h (1 Bft) 94,76 %
01.07.2017 01:00 15,7 C 15,0 C 13,9 C 94 % 15 lf 1005,0 hPa 0,0 l/m 0,00 h 0,00 h 0 W/m 6,9 km/h (2 Bft) 96,80 %
01.07.2017 02:00 15,5 C 14,7 C 13,9 C 95 % 15 lf 1005,1 hPa 0,0 l/m 0,00 h 0,00 h 0 W/m 7,8 km/h (2 Bft) 98,36 %
01.07.2017 03:00 15,3 C 14,4 C 13,9 C 96 % 15 lf 1005,2 hPa 0,2 l/m 0,00 h 0,37 h 0 W/m 9,7 km/h (2 Bft) 94,94 %
01.07.2017 04:00 15,1 C 14,4 C 13,4 C 96 % 15 lf 1005,2 hPa 1,4 l/m 0,00 h 1,00 h 0 W/m 11,2 km/h (2 Bft) 96,58 %
01.07.2017 05:00 14,9 C 14,4 C 13,3 C 96 % 15 lf 1004,8 hPa 0,6 l/m 0,00 h 1,00 h 6 W/m 14,9 km/h (3 Bft) 96,36 %
01.07.2017 06:00 14,8 C 14,4 C 13,3 C 97 % 15 lf 1004,6 hPa 1,2 l/m 0,00 h 1,00 h 15 W/m 18,7 km/h (3 Bft) 96,40 %
01.07.2017 07:00 14,8 C 14,4 C 13,6 C 97 % 15 lf 1004,8 hPa 2,4 l/m 0,00 h 0,93 h 24 W/m 16,2 km/h (3 Bft) 97,15 %
01.07.2017 08:00 14,8 C 14,4 C 13,9 C 98 % 15 lf 1005,3 hPa 0,0 l/m 0,00 h 0,37 h 60 W/m 17,3 km/h (3 Bft) 95,58 %
01.07.2017 09:00 15,0 C 14,9 C 14,3 C 98 % 15 lf 1005,8 hPa 0,0 l/m 0,00 h 0,43 h 94 W/m 14,6 km/h (3 Bft) 96,45 %
01.07.2017 10:00 15,1 C 15,2 C 14,5 C 97 % 15 lf 1006,2 hPa 0,0 l/m 0,00 h 0,23 h 118 W/m 16,4 km/h (3 Bft) 98,37 %
01.07.2017 11:00 15,3 C 15,1 C 14,5 C 97 % 15 lf 1006,6 hPa 0,2 l/m 0,00 h 0,30 h 109 W/m 17,1 km/h (3 Bft) 94,91 %
01.07.2017 12:00 15,6 C 16,0 C 15,3 C 97 % 13 lf 1007,3 hPa 0,0 l/m 0,00 h 0,00 h 147 W/m 15,0 km/h (3 Bft) 95,81 %
01.07.2017 13:00 16,3 C 17,6 C 15,9 C 97 % 0 lf 1008,0 hPa 0,0 l/m 0,00 h 0,00 h 144 W/m 11,1 km/h (2 Bft) 98,08 %
01.07.2017 14:00 17,0 C 18,7 C 16,8 C 96 % 1 lf 1008,6 hPa 0,0 l/m 0,00 h 0,23 h 179 W/m 12,6 km/h (3 Bft) 96,64 %
01.07.2017 15:00 17,3 C 17,5 C 16,2 C 95 % 8 lf 1009,4 hPa 0,0 l/m 0,00 h 0,70 h 93 W/m 10,4 km/h (2 Bft) 94,38 %
01.07.2017 16:00 17,2 C 17,2 C 16,1 C 96 % 15 lf 1010,1 hPa 0,2 l/m 0,00 h 0,23 h 95 W/m 10,2 km/h (2 Bft) 97,79 %
01.07.2017 17:00 17,3 C 17,5 C 16,3 C 96 % 15 lf 1010,7 hPa 0,2 l/m 0,00 h 0,20 h 102 W/m 11,5 km/h (2 Bft) 97,24 %
01.07.2017 18:00 17,0 C 16,9 C 15,5 C 96 % 15 lf 1011,5 hPa 0,0 l/m 0,00 h 0,33 h 56 W/m 15,0 km/h (3 Bft) 95,18 %
01.07.2017 19:00 17,0 C 17,7 C 16,1 C 96 % 15 lf 1012,1 hPa 0,0 l/m 0,17 h 0,00 h 105 W/m 11,5 km/h (2 Bft) 98,69 %
01.07.2017 20:00 17,6 C 17,9 C 15,9 C 96 % 2 lf 1012,6 hPa 0,0 l/m 0,75 h 0,00 h 92 W/m 12,4 km/h (3 Bft) 99,85 %
01.07.2017 21:00 17,4 C 16,6 C 15,0 C 96 % 2 lf 1013,3 hPa 0,0 l/m 0,25 h 0,00 h 17 W/m 4,6 km/h (1 Bft) 98,04 %
01.07.2017 22:00 16,7 C 15,9 C 14,6 C 95 % 3 lf 1014,3 hPa 0,0 l/m 0,00 h 0,00 h 0 W/m 10,3 km/h (2 Bft) 95,12 %
01.07.2017 23:00 15,9 C 15,3 C 13,9 C 95 % 2 lf 1015,0 hPa 0,0 l/m 0,00 h 0,00 h 0 W/m 11,9 km/h (2 Bft) 97,67 %
02.07.2017 00:00 15,4 C 15,0 C 13,6 C 95 % 1 lf 1015,6 hPa 0,0 l/m 0,00 h 0,00 h 0 W/m 9,7 km/h (2 Bft) 97,00 %
02.07.2017 01:00 14,9 C 14,2 C 12,8 C 95 % 2 lf 1015,8 hPa 0,0 l/m 0,00 h 0,00 h 0 W/m 8,1 km/h (2 Bft) 96,30 %
02.07.2017 02:00 14,5 C 13,9 C 12,8 C 95 % 2 lf 1015,9 hPa 0,0 l/m 0,00 h 0,00 h 0 W/m 8,6 km/h (2 Bft) 95,02 %
02.07.2017 03:00 14,3 C 14,1 C 12,7 C 96 % 2 lf 1016,2 hPa 0,0 l/m 0,00 h 0,00 h 0 W/m 11,1 km/h (2 Bft) 98,01 %
02.07.2017 04:00 14,2 C 14,0 C 12,8 C 97 % 2 lf 1016,0 hPa 0,0 l/m 0,00 h 0,00 h 0 W/m 10,1 km/h (2 Bft) 95,42 %
02.07.2017 05:00 14,3 C 14,4 C 13,1 C 97 % 2 lf 1015,9 hPa 0,0 l/m 0,00 h 0,00 h 7 W/m 9,5 km/h (2 Bft) 96,80 %
02.07.2017 06:00 14,3 C 14,8 C 13,4 C 97 % 1 lf 1016,0 hPa 0,0 l/m 0,00 h 0,00 h 25 W/m 13,3 km/h (3 Bft) 94,92 %
02.07.2017 07:00 14,7 C 15,5 C 14,2 C 96 % 1 lf 1016,1 hPa 0,0 l/m 0,07 h 0,10 h 70 W/m 13,7 km/h (3 Bft) 97,12 %
02.07.2017 08:00 15,5 C 16,5 C 15,6 C 93 % 0 lf 1016,4 hPa 0,0 l/m 0,00 h 0,00 h 131 W/m 18,7 km/h (3 Bft) 96,83 %
02.07.2017 09:00 16,2 C 17,8 C 17,0 C 91 % 0 lf 1016,7 hPa 0,0 l/m 0,20 h 0,07 h 215 W/m 20,7 km/h (4 Bft) 96,09 %
02.07.2017 10:00 17,0 C 18,4 C 17,8 C 90 % 0 lf 1017,0 hPa 0,0 l/m 0,00 h 0,00 h 195 W/m 19,6 km/h (3 Bft) 95,60 %
02.07.2017 11:00 17,3 C 18,2 C 17,5 C 89 % 0 lf 1017,4 hPa 0,0 l/m 0,00 h 0,00 h 152 W/m 18,0 km/h (3 Bft) 97,69 %
02.07.2017 12:00 18,0 C 20,2 C 20,0 C 88 % 0 lf 1017,6 hPa 0,0 l/m 0,17 h 0,00 h 304 W/m 17,4 km/h (3 Bft) 94,77 %
02.07.2017 13:00 18,6 C 18,7 C 18,0 C 86 % 7 lf 1017,9 hPa 0,6 l/m 0,00 h 0,47 h 120 W/m 16,2 km/h (3 Bft) 97,45 %
02.07.2017 14:00 17,7 C 17,9 C 17,2 C 93 % 15 lf 1018,3 hPa 0,2 l/m 0,10 h 0,23 h 271 W/m 12,6 km/h (3 Bft) 97,64 %
02.07.2017 15:00 19,2 C 23,1 C 23,3 C 90 % 0 lf 1018,3 hPa 0,0 l/m 0,83 h 0,00 h 665 W/m 20,8 km/h (4 Bft) 95,96 %
02.07.2017 16:00 20,5 C 21,7 C 22,1 C 82 % 0 lf 1018,3 hPa 0,0 l/m 0,23 h 0,07 h 272 W/m 17,9 km/h (3 Bft) 96,53 %
02.07.2017 17:00 20,9 C 23,1 C 22,9 C 77 % 0 lf 1018,4 hPa 0,0 l/m 0,57 h 0,00 h 437 W/m 19,2 km/h (3 Bft) 97,83 %
02.07.2017 18:00 21,4 C 22,5 C 20,7 C 68 % 0 lf 1018,6 hPa 0,0 l/m 0,93 h 0,00 h 449 W/m 23,8 km/h (4 Bft) 95,52 %
02.07.2017 19:00 20,6 C 20,8 C 19,3 C 68 % 0 lf 1019,1 hPa 0,0 l/m 0,83 h 0,00 h 262 W/m 20,3 km/h (4 Bft) 97,05 %
02.07.2017 20:00 19,3 C 18,7 C 17,1 C 68 % 0 lf 1019,5 hPa 0,0 l/m 0,83 h 0,00 h 106 W/m 16,4 km/h (3 Bft) 96,34 %
02.07.2017 21:00 17,9 C 16,3 C 14,6 C 72 % 0 lf 1020,2 hPa 0,0 l/m 0,00 h 0,00 h 18 W/m 10,8 km/h (2 Bft) 96,32 %
02.07.2017 22:00 16,0 C 13,8 C 12,1 C 76 % 0 lf 1021,0 hPa 0,0 l/m 0,00 h 0,00 h 0 W/m 7,9 km/h (2 Bft) 98,34 %
02.07.2017 23:00 14,3 C 12,3 C 10,8 C 80 % 0 lf 1021,3 hPa 0,0 l/m 0,00 h 0,00 h 4 W/m 5,9 km/h (2 Bft) 94,38 %
Min-Datum _ 02.07.17 02.07.17 02.07.17 26.06.17 26.06.17 29.06.17 - - - - 28.06.17 26.06.17
_ Min-Zeit 23:58 23:38 23:26 17:30 00:00 01:04 - - - - 21:16 04:05
Minimum _ 13,6 C 11,7 C 10,6 C 45 % 0 lf 993,7 hPa - - - - 0,0 km/h (0 Bft) 45,61 %
Max-Datum _ 26.06.17 26.06.17 26.06.17 01.07.17 26.06.17 02.07.17 30.06.17 01.07.17 01.07.17 26.06.17 29.06.17 26.06.17
_ Max-Zeit 16:50 11:08 16:50 07:42 08:52 23:52 22:18 19:50 05:03 12:56 08:58 00:02
Maximum _ 25,3 C 33,9 C 36,7 C 98 % 15 lf 1021,6 hPa 2,4 l/m 0,08 h 0,05 h 1160 W/m 37,7 km/h
W-SW (5 Bft)
100,00 %
Durchschnitt _ 18,6 C 19,1 C 18,2 C 81 % 3 lf 1005,7 hPa #12,4 l/m #34:44 h #15:52 h 194 W/m 13,5 km/h (3 Bft) 96,57 %
© 2017 W. Hausmann